Time;durP1;ratioP1;P1;durP2;ratioP2;P2;SDS_P1;SDS_P2;PMS_P1;PMS_P2;Temp;Humidity;BMP_temperature;BMP_pressure;BME280_temperature;BME280_humidity;BME280_pressure;Samples;Min_cycle;Max_cycle;Signal;HPM_P1;HPM_P2
2023/12/04 00:00:39;;;;;;;16.60;12.57;;;;;;;0.02;100.00;101294.78;5110319;28;20505;-35
2023/12/04 00:03:05;;;;;;;13.90;11.40;;;;;;;0.04;100.00;101298.09;5110474;28;20379;-35
2023/12/04 00:05:30;;;;;;;13.93;10.60;;;;;;;0.11;100.00;101301.84;5110479;28;20464;-35
2023/12/04 00:07:55;;;;;;;15.83;11.67;;;;;;;0.05;100.00;101298.94;5102536;28;20384;-35
2023/12/04 00:10:21;;;;;;;18.37;12.27;;;;;;;0.07;100.00;101302.28;5096523;28;20376;-35
2023/12/04 00:12:46;;;;;;;16.88;12.65;;;;;;;0.01;100.00;101289.63;5097029;28;20055;-35
2023/12/04 00:15:12;;;;;;;16.90;12.40;;;;;;;-0.04;100.00;101274.13;5097170;28;20453;-35
2023/12/04 00:17:39;;;;;;;16.53;11.40;;;;;;;0.13;100.00;101293.72;5096875;28;20024;-36
2023/12/04 00:20:09;;;;;;;15.10;11.10;;;;;;;0.11;100.00;101293.88;5097162;28;20028;-35
2023/12/04 00:22:36;;;;;;;14.27;10.70;;;;;;;0.15;100.00;101287.25;5097093;28;20387;-36
2023/12/04 00:25:03;;;;;;;17.38;11.48;;;;;;;0.13;100.00;101283.06;5096437;28;20028;-36
2023/12/04 00:27:28;;;;;;;15.73;11.80;;;;;;;0.15;100.00;101281.13;5096714;28;20085;-36
2023/12/04 00:29:53;;;;;;;15.00;11.55;;;;;;;0.17;100.00;101287.09;5096139;28;20028;-36
2023/12/04 00:32:19;;;;;;;14.50;10.73;;;;;;;0.15;100.00;101279.28;5096195;28;20111;-36
2023/12/04 00:34:44;;;;;;;15.63;11.60;;;;;;;0.16;100.00;101283.59;5096351;28;20407;-36
2023/12/04 00:37:10;;;;;;;15.53;11.87;;;;;;;0.07;100.00;101263.25;5096525;28;20020;-36
2023/12/04 00:39:35;;;;;;;16.17;11.53;;;;;;;0.10;100.00;101265.59;5095940;28;20306;-36
2023/12/04 00:42:00;;;;;;;15.50;11.83;;;;;;;0.18;100.00;101268.31;5096294;28;20028;-36
2023/12/04 00:44:26;;;;;;;15.90;11.53;;;;;;;0.10;100.00;101248.78;5095935;28;20028;-36
2023/12/04 00:46:51;;;;;;;16.90;12.30;;;;;;;0.07;100.00;101249.94;5095635;28;20035;-36
2023/12/04 00:49:17;;;;;;;15.90;12.73;;;;;;;0.15;100.00;101260.66;5095553;28;20119;-36
2023/12/04 00:51:42;;;;;;;15.98;11.48;;;;;;;0.14;100.00;101258.13;5096262;28;20047;-36
2023/12/04 00:54:07;;;;;;;15.30;11.20;;;;;;;0.12;100.00;101255.63;5095375;28;20025;-36
2023/12/04 00:56:33;;;;;;;15.87;12.53;;;;;;;0.01;100.00;101231.13;5095379;28;20048;-36
2023/12/04 00:58:58;;;;;;;15.70;11.03;;;;;;;0.11;100.00;101246.00;5095569;28;20742;-35
2023/12/04 01:01:23;;;;;;;14.87;11.80;;;;;;;0.10;100.00;101241.69;5096355;28;20024;-36
2023/12/04 01:03:49;;;;;;;15.33;11.20;;;;;;;0.12;100.00;101238.84;5095558;28;20020;-36
2023/12/04 01:06:23;;;;;;;16.13;11.63;;;;;;;0.09;100.00;101236.50;5095507;28;20087;-36
2023/12/04 01:08:49;;;;;;;14.98;11.25;;;;;;;0.12;100.00;101239.69;5095348;28;20418;-36
2023/12/04 01:11:15;;;;;;;14.57;11.35;;;;;;;0.12;100.00;101236.19;5095659;28;20028;-36
2023/12/04 01:13:41;;;;;;;14.52;11.48;;;;;;;0.10;100.00;101231.03;5095554;28;20020;-36
2023/12/04 01:16:07;;;;;;;14.97;11.07;;;;;;;0.03;100.00;101216.66;5095204;28;20088;-36
2023/12/04 01:18:32;;;;;;;15.65;10.80;;;;;;;0.14;100.00;101231.53;5095038;28;20028;-36
2023/12/04 01:20:57;;;;;;;13.97;10.53;;;;;;;0.14;100.00;101223.56;5095138;28;20024;-36
2023/12/04 01:23:23;;;;;;;16.37;12.00;;;;;;;0.15;100.00;101228.75;5094797;28;20043;-36
2023/12/04 01:25:48;;;;;;;15.80;11.77;;;;;;;0.09;100.00;101212.56;5095631;28;20028;-36
2023/12/04 01:28:14;;;;;;;15.87;11.47;;;;;;;0.13;100.00;101219.25;5094739;28;20028;-36
2023/12/04 01:30:39;;;;;;;13.57;10.60;;;;;;;0.14;100.00;101219.06;5095795;28;20035;-36
2023/12/04 01:33:05;;;;;;;16.90;11.00;;;;;;;0.14;100.00;101212.94;5095439;28;20090;-36
2023/12/04 01:35:30;;;;;;;14.30;10.87;;;;;;;0.16;100.00;101216.28;5094573;28;20446;-36
2023/12/04 01:37:55;;;;;;;14.93;12.07;;;;;;;0.12;100.00;101223.72;5094516;28;20036;-36
2023/12/04 01:40:21;;;;;;;13.90;10.63;;;;;;;0.08;100.00;101201.09;5095371;28;20255;-36
2023/12/04 01:42:46;;;;;;;13.07;10.50;;;;;;;0.11;100.00;101197.28;5094658;28;20020;-36
2023/12/04 01:45:11;;;;;;;16.03;11.20;;;;;;;0.14;100.00;101204.94;5095051;28;20032;-36
2023/12/04 01:47:37;;;;;;;15.27;11.40;;;;;;;0.18;100.00;101204.50;5093418;28;20032;-36
2023/12/04 01:50:04;;;;;;;14.20;10.95;;;;;;;0.08;100.00;101198.44;5094681;28;20021;-36
2023/12/04 01:52:30;;;;;;;13.50;10.82;;;;;;;0.17;100.00;101202.81;5095262;28;20024;-36
2023/12/04 01:54:55;;;;;;;13.75;10.43;;;;;;;0.14;100.00;101197.81;5094151;28;20039;-36
2023/12/04 01:57:21;;;;;;;13.57;10.60;;;;;;;0.15;100.00;101194.19;5094534;28;20051;-36
2023/12/04 01:59:46;;;;;;;13.18;10.65;;;;;;;0.15;100.00;101196.84;5094336;28;20364;-36
2023/12/04 02:02:12;;;;;;;16.80;11.55;;;;;;;0.13;100.00;101188.16;5094883;28;20030;-36
2023/12/04 02:04:38;;;;;;;13.60;10.13;;;;;;;0.19;100.00;101190.19;5094289;28;20422;-36
2023/12/04 02:07:04;;;;;;;14.32;10.40;;;;;;;0.09;100.00;101181.47;5094586;28;20361;-36
2023/12/04 02:09:30;;;;;;;14.40;10.77;;;;;;;0.14;100.00;101181.84;5094208;28;20031;-36
2023/12/04 02:11:56;;;;;;;15.00;10.63;;;;;;;0.16;100.00;101181.72;5095035;28;20406;-36
2023/12/04 02:14:22;;;;;;;;;;;;;;;0.22;100.00;101168.63;5094295;28;20046;-36
2023/12/04 02:16:48;;;;;;;14.48;9.60;;;;;;;0.20;100.00;101172.44;5094094;28;19912;-36
2023/12/04 02:19:14;;;;;;;13.25;10.15;;;;;;;0.21;100.00;101158.13;5094070;28;20415;-36
2023/12/04 02:21:39;;;;;;;14.15;10.77;;;;;;;0.22;100.00;101165.13;5094082;28;20028;-36
2023/12/04 02:24:05;;;;;;;13.73;9.80;;;;;;;0.22;100.00;101163.28;5093685;28;20028;-36
2023/12/04 02:26:39;;;;;;;11.98;9.50;;;;;;;0.18;100.00;101153.94;5094554;28;20440;-36
2023/12/04 02:29:11;;;;;;;13.88;10.02;;;;;;;0.25;100.00;101163.00;5094248;28;20028;-36
2023/12/04 02:31:39;;;;;;;12.43;9.45;;;;;;;0.31;100.00;101150.06;5093968;28;20471;-36
2023/12/04 02:34:07;;;;;;;11.90;9.27;;;;;;;0.29;100.00;101149.38;5093595;28;20035;-36
2023/12/04 02:36:34;;;;;;;11.35;8.85;;;;;;;0.20;100.00;101136.03;5094584;28;20024;-36
2023/12/04 02:39:00;;;;;;;13.57;10.20;;;;;;;0.28;100.00;101143.22;5093815;28;20024;-36
2023/12/04 02:41:26;;;;;;;13.18;9.75;;;;;;;0.26;100.00;101139.88;5094178;28;20388;-36
2023/12/04 02:43:51;;;;;;;12.38;9.93;;;;;;;0.30;100.00;101132.44;5093790;28;20032;-36
2023/12/04 02:46:17;;;;;;;12.00;9.20;;;;;;;0.26;100.00;101131.91;5093746;28;20027;-36
2023/12/04 02:48:42;;;;;;;13.43;9.53;;;;;;;0.27;100.00;101130.06;5093953;28;20028;-36
2023/12/04 02:51:08;;;;;;;11.57;9.18;;;;;;;0.27;100.00;101124.75;5093706;28;20050;-36
2023/12/04 02:53:33;;;;;;;12.33;9.37;;;;;;;0.23;100.00;101119.75;5093542;28;20506;-36
2023/12/04 02:55:58;;;;;;;12.87;9.70;;;;;;;0.24;100.00;101118.78;5093572;28;20044;-36
2023/12/04 02:58:24;;;;;;;13.67;9.53;;;;;;;0.17;100.00;101112.41;5093481;28;20502;-36
2023/12/04 03:00:49;;;;;;;11.73;8.63;;;;;;;0.23;100.00;101109.09;5093233;28;20388;-35
2023/12/04 03:03:14;;;;;;;11.93;9.27;;;;;;;0.12;100.00;101080.13;5093509;28;20405;-35
2023/12/04 03:05:40;;;;;;;10.70;8.33;;;;;;;0.20;100.00;101097.97;5093415;28;20481;-36
2023/12/04 03:08:05;;;;;;;11.52;8.57;;;;;;;0.24;100.00;101100.16;5093475;28;20115;-35
2023/12/04 03:10:30;;;;;;;11.67;8.47;;;;;;;0.23;100.00;101098.47;5093470;28;20039;-36
2023/12/04 03:12:56;;;;;;;12.33;8.10;;;;;;;0.24;100.00;101092.19;5093455;28;20032;-35
2023/12/04 03:15:21;;;;;;;11.50;8.87;;;;;;;0.28;100.00;101094.50;5093953;28;20025;-36
2023/12/04 03:17:46;;;;;;;11.90;8.90;;;;;;;0.21;100.00;101087.16;5093407;28;20029;-35
2023/12/04 03:20:12;;;;;;;10.13;8.20;;;;;;;0.28;100.00;101089.19;5093995;28;20453;-35
2023/12/04 03:22:37;;;;;;;10.83;8.53;;;;;;;0.30;100.00;101090.72;5093671;28;20036;-35
2023/12/04 03:25:03;;;;;;;10.07;7.93;;;;;;;0.18;100.00;101062.69;5093367;28;20043;-35
2023/12/04 03:27:28;;;;;;;11.57;8.25;;;;;;;0.21;100.00;101071.19;5093865;28;20114;-35
2023/12/04 03:29:54;;;;;;;10.43;8.23;;;;;;;0.27;100.00;101077.72;5093246;28;20078;-35
2023/12/04 03:32:19;;;;;;;11.00;8.02;;;;;;;0.25;100.00;101063.75;5093767;28;20111;-35
2023/12/04 03:34:45;;;;;;;9.47;7.90;;;;;;;0.23;100.00;101063.88;5093265;28;20020;-36
2023/12/04 03:37:10;;;;;;;12.27;8.37;;;;;;;0.21;100.00;101062.41;5093491;28;20031;-35
2023/12/04 03:39:36;;;;;;;10.43;8.15;;;;;;;0.22;100.00;101058.72;5092936;28;20032;-35
2023/12/04 03:42:01;;;;;;;10.17;7.60;;;;;;;0.19;100.00;101043.09;5093478;28;20110;-36
2023/12/04 03:44:26;;;;;;;10.60;8.03;;;;;;;0.22;100.00;101043.59;5097009;28;20265;-36
2023/12/04 03:46:52;;;;;;;10.73;8.30;;;;;;;0.17;100.00;101048.56;5097233;28;20056;-36
2023/12/04 03:49:17;;;;;;;10.20;7.90;;;;;;;0.17;100.00;101034.44;5097188;28;20460;-36
2023/12/04 03:51:43;;;;;;;10.00;7.67;;;;;;;0.08;100.00;101030.91;5096964;28;20027;-36
2023/12/04 03:54:08;;;;;;;10.13;7.83;;;;;;;0.18;100.00;101033.44;5097412;28;20364;-36
2023/12/04 03:56:33;;;;;;;9.43;7.47;;;;;;;0.18;100.00;101022.81;5097080;28;20077;-36
2023/12/04 03:58:58;;;;;;;10.37;7.70;;;;;;;0.18;100.00;101026.28;5096996;28;20203;-36
2023/12/04 04:01:24;;;;;;;11.53;9.30;;;;;;;0.15;100.00;101020.47;5096421;28;20035;-36
2023/12/04 04:03:49;;;;;;;10.23;8.43;;;;;;;0.14;100.00;101013.47;5096400;28;20028;-36
2023/12/04 04:06:15;;;;;;;11.00;7.63;;;;;;;0.14;100.00;101022.28;5096418;28;20107;-36
2023/12/04 04:08:40;;;;;;;11.60;8.10;;;;;;;0.14;100.00;101013.47;5096540;28;20102;-36
2023/12/04 04:11:06;;;;;;;9.40;7.20;;;;;;;0.13;100.00;101014.47;5096802;28;20262;-36
2023/12/04 04:13:31;;;;;;;11.50;8.45;;;;;;;0.02;100.00;100994.31;5096960;28;20081;-36
2023/12/04 04:15:56;;;;;;;10.73;7.90;;;;;;;0.14;100.00;101011.63;5096657;28;20437;-36
2023/12/04 04:18:21;;;;;;;9.10;7.27;;;;;;;0.11;100.00;101006.66;5096628;28;20115;-36
2023/12/04 04:20:47;;;;;;;9.83;7.50;;;;;;;0.13;100.00;101002.00;5096647;28;20488;-36
2023/12/04 04:23:12;;;;;;;10.03;7.83;;;;;;;0.13;100.00;101003.84;5096301;28;20027;-36
2023/12/04 04:25:37;;;;;;;12.03;8.60;;;;;;;-0.01;100.00;100983.97;5096634;28;20063;-35
2023/12/04 04:28:03;;;;;;;10.47;8.60;;;;;;;0.10;100.00;100991.72;5095967;28;20032;-35
2023/12/04 04:30:29;;;;;;;8.50;6.67;;;;;;;0.10;100.00;101001.47;5096499;28;20028;-35
2023/12/04 04:32:54;;;;;;;10.57;8.38;;;;;;;0.08;100.00;100984.88;5096051;28;20024;-35
2023/12/04 04:35:19;;;;;;;9.10;6.67;;;;;;;0.07;100.00;100986.69;5096067;28;20051;-35
2023/12/04 04:37:45;;;;;;;13.80;8.23;;;;;;;-0.07;100.00;100972.16;5096039;28;20020;-35
2023/12/04 04:40:10;;;;;;;11.07;7.77;;;;;;;0.07;100.00;100980.53;5096046;28;20020;-36
2023/12/04 04:42:35;;;;;;;10.52;8.07;;;;;;;0.08;100.00;100983.03;5096811;28;20032;-36
2023/12/04 04:45:01;;;;;;;10.60;7.70;;;;;;;0.03;100.00;100971.22;5095903;28;20020;-36
2023/12/04 04:47:26;;;;;;;9.93;7.83;;;;;;;0.05;100.00;100975.41;5096430;28;20032;-36
2023/12/04 04:49:51;;;;;;;11.97;7.57;;;;;;;0.02;100.00;100967.72;5095777;28;20028;-36
2023/12/04 04:52:17;;;;;;;11.50;7.93;;;;;;;0.05;100.00;100972.75;5095477;28;20384;-36
2023/12/04 04:54:42;;;;;;;11.13;8.57;;;;;;;0.05;100.00;100975.41;5095303;28;20016;-36
2023/12/04 04:57:08;;;;;;;9.70;7.73;;;;;;;0.05;100.00;100972.75;5095514;28;20116;-36
2023/12/04 04:59:33;;;;;;;12.05;7.20;;;;;;;0.08;100.00;100977.72;5095833;28;20153;-36
2023/12/04 05:01:58;;;;;;;8.60;7.10;;;;;;;0.04;100.00;100976.34;5096374;28;20520;-36
2023/12/04 05:04:24;;;;;;;8.20;7.10;;;;;;;0.04;100.00;100967.56;5096580;28;20024;-36
2023/12/04 05:06:49;;;;;;;9.63;7.13;;;;;;;-0.04;100.00;100963.06;5095456;28;20062;-36
2023/12/04 05:09:15;;;;;;;9.17;7.33;;;;;;;0.07;100.00;100977.88;5095070;28;20151;-36
2023/12/04 05:11:40;;;;;;;10.60;7.72;;;;;;;0.06;100.00;100966.41;5095688;28;20051;-36
2023/12/04 05:14:06;;;;;;;11.33;7.70;;;;;;;0.08;100.00;100968.91;5095302;28;20039;-36
2023/12/04 05:16:31;;;;;;;9.10;6.97;;;;;;;0.05;100.00;100962.09;5095184;28;20028;-36
2023/12/04 05:18:56;;;;;;;9.27;6.87;;;;;;;0.01;100.00;100952.78;5094882;28;20028;-36
2023/12/04 05:21:22;;;;;;;10.50;7.27;;;;;;;0.10;100.00;100964.25;5094968;28;20032;-36
2023/12/04 05:23:47;;;;;;;10.50;7.27;;;;;;;0.08;100.00;100951.13;5094771;28;20024;-36
2023/12/04 05:26:12;;;;;;;8.40;6.73;;;;;;;0.13;100.00;100963.94;5095104;28;20031;-36
2023/12/04 05:28:38;;;;;;;10.30;7.23;;;;;;;0.12;100.00;100951.66;5094773;28;20073;-36
2023/12/04 05:31:04;;;;;;;11.00;7.93;;;;;;;-0.05;100.00;100918.81;5095545;28;20020;-36
2023/12/04 05:33:30;;;;;;;10.50;7.53;;;;;;;0.07;100.00;100936.16;5095114;28;20374;-36
2023/12/04 05:35:55;;;;;;;10.37;7.70;;;;;;;0.06;100.00;100923.88;5094589;28;20024;-36
2023/12/04 05:38:20;;;;;;;9.67;7.37;;;;;;;0.10;100.00;100937.66;5095065;28;20738;-36
2023/12/04 05:40:46;;;;;;;9.70;6.97;;;;;;;0.12;100.00;100938.34;5095139;28;20421;-36
2023/12/04 05:43:11;;;;;;;8.95;7.05;;;;;;;0.09;100.00;100931.50;5095522;28;20039;-36
2023/12/04 05:45:37;;;;;;;9.87;7.37;;;;;;;0.10;100.00;100922.56;5095011;28;20103;-36
2023/12/04 05:48:02;;;;;;;9.53;6.77;;;;;;;0.11;100.00;100924.22;5094614;28;20020;-36
2023/12/04 05:50:27;;;;;;;8.75;6.97;;;;;;;0.12;100.00;100925.88;5095208;28;20144;-36
2023/12/04 05:52:53;;;;;;;8.63;6.97;;;;;;;0.11;100.00;100924.22;5094842;28;20024;-36
2023/12/04 05:55:20;;;;;;;7.67;6.10;;;;;;;0.11;100.00;100926.88;5094618;28;20020;-36
2023/12/04 05:57:45;;;;;;;8.93;7.57;;;;;;;0.09;100.00;100928.84;5094783;28;20451;-36
2023/12/04 06:00:12;;;;;;;9.37;7.23;;;;;;;0.04;100.00;100925.84;5094045;28;20028;-36
2023/12/04 06:02:46;;;;;;;9.10;6.97;;;;;;;0.05;100.00;100930.19;5094290;28;20016;-36
2023/12/04 06:05:12;;;;;;;8.73;6.68;;;;;;;-0.03;100.00;100909.72;5094392;28;20032;-36
2023/12/04 06:07:38;;;;;;;7.97;6.63;;;;;;;0.07;100.00;100928.19;5094264;28;20161;-36
2023/12/04 06:10:07;;;;;;;8.15;6.65;;;;;;;0.08;100.00;100919.22;5094755;28;20032;-36
2023/12/04 06:12:33;;;;;;;7.97;6.75;;;;;;;0.07;100.00;100909.59;5094765;28;20117;-36
2023/12/04 06:14:58;;;;;;;8.75;6.68;;;;;;;0.08;100.00;100919.22;5094163;28;20425;-36
2023/12/04 06:17:24;;;;;;;8.68;6.32;;;;;;;-0.05;100.00;100882.47;5094369;28;20039;-36
2023/12/04 06:19:49;;;;;;;7.60;6.18;;;;;;;0.02;100.00;100892.44;5094671;28;20039;-36
2023/12/04 06:22:18;;;;;;;7.87;5.93;;;;;;;0.14;100.00;100886.66;5093870;28;20027;-36
2023/12/04 06:24:44;;;;;;;8.02;6.72;;;;;;;0.11;100.00;100886.16;5093920;28;20031;-36
2023/12/04 06:27:14;;;;;;;10.73;7.30;;;;;;;0.10;100.00;100884.47;5093559;28;20047;-36
2023/12/04 06:29:40;;;;;;;8.10;6.28;;;;;;;0.03;100.00;100862.19;5093916;28;20034;-36
2023/12/04 06:32:06;;;;;;;9.88;7.18;;;;;;;0.05;100.00;100853.09;5095084;28;20114;-36
2023/12/04 06:34:31;;;;;;;9.10;6.38;;;;;;;0.14;100.00;100867.22;5093809;28;20099;-36
2023/12/04 06:36:58;;;;;;;8.55;6.03;;;;;;;0.12;100.00;100858.56;5094322;28;20058;-36
2023/12/04 06:39:27;;;;;;;7.63;6.47;;;;;;;-0.05;100.00;100836.41;5093812;28;20448;-36
2023/12/04 06:41:53;;;;;;;6.75;5.60;;;;;;;0.06;100.00;100848.59;5094327;28;20043;-36
2023/12/04 06:44:18;;;;;;;6.47;5.78;;;;;;;0.06;100.00;100838.78;5093731;28;20020;-36
2023/12/04 06:46:48;;;;;;;7.07;5.50;;;;;;;0.06;100.00;100836.13;5094330;28;20464;-36
2023/12/04 06:49:17;;;;;;;7.30;6.03;;;;;;;-0.05;100.00;100816.00;5093341;28;20035;-36
2023/12/04 06:51:42;;;;;;;7.15;5.90;;;;;;;0.05;100.00;100828.28;5093956;28;20032;-36
2023/12/04 06:54:08;;;;;;;9.47;5.97;;;;;;;0.06;100.00;100836.13;5093658;28;20020;-36
2023/12/04 06:56:33;;;;;;;6.53;5.57;;;;;;;0.06;100.00;100830.81;5093757;28;20044;-36
2023/12/04 06:58:58;;;;;;;5.97;5.20;;;;;;;0.08;100.00;100828.81;5093663;28;20025;-36
2023/12/04 07:01:23;;;;;;;7.93;5.70;;;;;;;0.05;100.00;100823.84;5093624;28;20035;-36
2023/12/04 07:03:49;;;;;;;7.80;6.00;;;;;;;0.10;100.00;100833.97;5093610;28;20028;-36
2023/12/04 07:06:14;;;;;;;6.67;5.27;;;;;;;0.04;100.00;100827.47;5094210;28;20028;-36
2023/12/04 07:08:40;;;;;;;7.23;6.03;;;;;;;0.05;100.00;100826.50;5093759;28;20020;-36
2023/12/04 07:11:07;;;;;;;7.60;5.40;;;;;;;0.14;100.00;100837.97;5094332;28;20077;-36
2023/12/04 07:13:33;;;;;;;6.28;5.10;;;;;;;0.10;100.00;100824.19;5093148;28;20129;-36
2023/12/04 07:15:59;;;;;;;7.53;5.63;;;;;;;0.19;100.00;100833.81;5093932;28;20545;-36
2023/12/04 07:18:25;;;;;;;6.68;5.22;;;;;;;0.18;100.00;100833.97;5095719;28;20471;-36
2023/12/04 07:20:51;;;;;;;5.93;5.13;;;;;;;0.16;100.00;100831.50;5098331;28;20028;-36
2023/12/04 07:23:16;;;;;;;6.20;5.10;;;;;;;0.04;100.00;100810.69;5097336;28;20031;-36
2023/12/04 07:25:41;;;;;;;6.43;5.20;;;;;;;0.12;100.00;100829.31;5097701;28;20027;-37
2023/12/04 07:28:07;;;;;;;5.80;4.87;;;;;;;0.17;100.00;100827.00;5097584;28;20052;-36
2023/12/04 07:30:33;;;;;;;6.68;4.80;;;;;;;0.16;100.00;100830.66;5096951;28;20258;-37
2023/12/04 07:32:58;;;;;;;6.00;4.57;;;;;;;0.10;100.00;100821.53;5096877;28;20042;-36
2023/12/04 07:35:26;;;;;;;5.97;4.88;;;;;;;0.16;100.00;100831.50;5097476;28;20051;-36
2023/12/04 07:37:52;;;;;;;6.65;5.25;;;;;;;0.18;100.00;100824.16;5097112;28;20024;-36
2023/12/04 07:40:17;;;;;;;6.03;4.68;;;;;;;0.20;100.00;100821.38;5097413;28;20392;-36
2023/12/04 07:42:43;;;;;;;5.97;4.83;;;;;;;0.20;100.00;100824.03;5096789;28;20028;-36
2023/12/04 07:45:10;;;;;;;6.30;4.93;;;;;;;0.10;100.00;100821.53;5096736;28;20020;-36
2023/12/04 07:47:35;;;;;;;6.15;4.70;;;;;;;0.14;100.00;100832.63;5096977;28;20032;-37
2023/12/04 07:50:01;;;;;;;6.10;4.93;;;;;;;0.16;100.00;100836.81;5096960;28;20032;-37
2023/12/04 07:52:26;;;;;;;5.87;4.73;;;;;;;0.15;100.00;100832.50;5096620;28;20024;-36
2023/12/04 07:54:51;;;;;;;7.13;4.63;;;;;;;0.15;100.00;100824.53;5096762;28;20103;-35
2023/12/04 07:57:17;;;;;;;5.13;4.40;;;;;;;0.17;100.00;100825.19;5097059;28;20044;-35
2023/12/04 07:59:42;;;;;;;5.25;4.53;;;;;;;0.13;100.00;100810.53;5097271;28;20089;-36
2023/12/04 08:02:08;;;;;;;5.63;4.63;;;;;;;0.15;100.00;100816.53;5096437;28;20035;-35
2023/12/04 08:04:33;;;;;;;5.50;4.27;;;;;;;0.14;100.00;100811.38;5096647;28;20441;-35
2023/12/04 08:06:59;;;;;;;5.63;4.37;;;;;;;0.08;100.00;100801.41;5096970;28;20058;-35
2023/12/04 08:09:24;;;;;;;6.18;4.88;;;;;;;0.17;100.00;100800.41;5096544;28;20440;-36
2023/12/04 08:11:49;;;;;;;5.70;4.40;;;;;;;0.20;100.00;100798.25;5096527;28;20066;-35
2023/12/04 08:14:16;;;;;;;6.80;4.60;;;;;;;0.22;100.00;100806.06;5096124;28;20028;-35
2023/12/04 08:16:41;;;;;;;;;;;;;;;0.27;100.00;100801.09;5097054;28;20058;-36
2023/12/04 08:19:06;;;;;;;5.32;4.13;;;;;;;0.11;100.00;100782.47;5096319;28;19912;-36
2023/12/04 08:21:32;;;;;;;5.10;4.30;;;;;;;0.25;100.00;100790.63;5096706;28;20071;-36
2023/12/04 08:23:58;;;;;;;6.43;4.68;;;;;;;0.28;100.00;100796.59;5097063;28;20024;-36
2023/12/04 08:26:24;;;;;;;7.50;4.35;;;;;;;0.27;100.00;100785.13;5096783;28;20043;-36
2023/12/04 08:28:50;;;;;;;5.13;4.22;;;;;;;0.32;100.00;100789.94;5095667;28;20161;-36
2023/12/04 08:31:16;;;;;;;5.53;4.28;;;;;;;0.24;100.00;100780.13;5096135;28;20460;-36
2023/12/04 08:33:42;;;;;;;5.20;4.20;;;;;;;0.24;100.00;100775.66;5096304;28;20028;-36
2023/12/04 08:36:07;;;;;;;4.90;3.90;;;;;;;0.17;100.00;100758.69;5096087;28;20047;-36
2023/12/04 08:38:33;;;;;;;5.20;4.47;;;;;;;0.31;100.00;100781.16;5096105;28;20028;-36
2023/12/04 08:40:58;;;;;;;5.17;3.83;;;;;;;0.34;100.00;100777.31;5095630;28;20109;-36
2023/12/04 08:43:24;;;;;;;5.28;4.50;;;;;;;0.34;100.00;100778.16;5095600;28;20036;-40
2023/12/04 08:45:49;;;;;;;5.67;4.67;;;;;;;0.27;100.00;100758.53;5095901;28;20173;-36
2023/12/04 08:48:14;;;;;;;5.10;4.37;;;;;;;0.28;100.00;100754.88;5095836;28;20020;-36
2023/12/04 08:50:40;;;;;;;5.63;4.33;;;;;;;0.38;100.00;100763.50;5095487;28;20051;-36
2023/12/04 08:53:05;;;;;;;5.67;4.50;;;;;;;0.36;100.00;100748.72;5096235;28;20039;-37
2023/12/04 08:55:31;;;;;;;5.73;4.63;;;;;;;0.38;100.00;100752.03;5095758;28;20380;-36
2023/12/04 08:57:56;;;;;;;7.15;4.90;;;;;;;0.43;100.00;100757.69;5095950;28;20077;-37
2023/12/04 09:00:22;;;;;;;5.57;4.03;;;;;;;0.44;100.00;100754.03;5095688;28;20526;-34
2023/12/04 09:02:48;;;;;;;5.07;4.37;;;;;;;0.44;100.00;100754.88;5095551;28;20036;-36
2023/12/04 09:05:13;;;;;;;;;;;;;;;0.48;100.00;100744.72;5096793;28;20111;-36
2023/12/04 09:07:39;;;;;;;6.25;4.60;;;;;;;0.46;100.00;100736.91;5095161;28;19959;-36
2023/12/04 09:10:05;;;;;;;5.67;4.27;;;;;;;0.47;100.00;100735.06;5095483;28;20511;-36
2023/12/04 09:12:30;;;;;;;5.78;4.25;;;;;;;0.49;100.00;100730.44;5095621;28;20051;-36
2023/12/04 09:14:55;;;;;;;5.47;4.37;;;;;;;0.43;100.00;100720.44;5095343;28;20035;-36
2023/12/04 09:17:20;;;;;;;5.07;4.43;;;;;;;0.49;100.00;100733.94;5095145;28;20366;-34
2023/12/04 09:19:46;;;;;;;6.37;4.47;;;;;;;0.51;100.00;100745.22;5095419;28;20478;-36
2023/12/04 09:22:11;;;;;;;6.23;4.40;;;;;;;0.48;100.00;100729.56;5094967;28;20558;-37
2023/12/04 09:24:36;;;;;;;5.43;4.17;;;;;;;0.54;100.00;100738.75;5095099;28;20020;-36
2023/12/04 09:27:02;;;;;;;5.50;4.30;;;;;;;0.50;100.00;100722.28;5095387;28;20060;-35
2023/12/04 09:29:27;;;;;;;4.50;3.63;;;;;;;0.59;100.00;100733.75;5095000;28;20380;-36
2023/12/04 09:31:53;;;;;;;5.50;4.53;;;;;;;0.58;100.00;100723.25;5095060;28;20081;-36
2023/12/04 09:34:20;;;;;;;4.70;4.00;;;;;;;0.60;100.00;100729.25;5095471;28;20105;-36
2023/12/04 09:36:45;;;;;;;5.38;4.40;;;;;;;0.62;100.00;100737.88;5095337;28;20024;-35
2023/12/04 09:39:10;;;;;;;5.10;4.25;;;;;;;0.64;100.00;100734.06;5094799;28;20051;-36
2023/12/04 09:41:38;;;;;;;5.03;4.50;;;;;;;0.66;100.00;100731.22;5094269;28;20464;-36
2023/12/04 09:44:04;;;;;;;5.50;4.32;;;;;;;0.67;100.00;100728.38;5095290;28;20028;-35
2023/12/04 09:46:30;;;;;;;5.57;4.55;;;;;;;0.70;100.00;100732.56;5095192;28;20065;-37
2023/12/04 09:48:56;;;;;;;;;;;;;;;0.75;100.00;100736.38;5095122;28;20089;-37
2023/12/04 09:51:23;;;;;;;8.60;5.25;;;;;;;0.68;100.00;100721.22;5094596;28;19907;-37
2023/12/04 09:53:49;;;;;;;6.15;4.43;;;;;;;0.75;100.00;100731.03;5094259;28;20034;-36
2023/12/04 09:56:16;;;;;;;5.28;4.60;;;;;;;0.76;100.00;100724.72;5094229;28;20114;-36
2023/12/04 09:58:43;;;;;;;5.20;4.47;;;;;;;0.77;100.00;100722.88;5094481;28;20101;-37
2023/12/04 10:01:08;;;;;;;5.97;4.63;;;;;;;0.79;100.00;100725.41;5094537;28;20111;-37
2023/12/04 10:03:35;;;;;;;5.27;4.40;;;;;;;0.80;100.00;100719.06;5094423;28;20106;-36
2023/12/04 10:06:01;;;;;;;6.88;4.80;;;;;;;0.75;100.00;100725.72;5094635;28;20600;-36
2023/12/04 10:08:26;;;;;;;6.00;5.05;;;;;;;0.70;100.00;100696.13;5094323;28;20036;-36
2023/12/04 10:10:51;;;;;;;4.87;4.03;;;;;;;0.69;100.00;100693.63;5094898;28;20364;-35
2023/12/04 10:13:17;;;;;;;6.33;4.57;;;;;;;0.62;100.00;100677.50;5093862;28;20058;-35
2023/12/04 10:15:50;;;;;;;5.85;4.72;;;;;;;0.82;100.00;100717.03;5094147;28;20031;-35
2023/12/04 10:18:26;;;;;;;6.25;4.90;;;;;;;0.83;100.00;100702.72;5094418;28;20435;-35
2023/12/04 10:20:55;;;;;;;5.38;4.72;;;;;;;0.84;100.00;100699.91;5094755;28;20031;-36
2023/12/04 10:23:21;;;;;;;7.03;5.30;;;;;;;0.90;100.00;100698.41;5094023;28;20530;-37
2023/12/04 10:25:49;;;;;;;6.68;4.55;;;;;;;0.85;100.00;100704.22;5094316;28;20115;-36
2023/12/04 10:28:15;;;;;;;6.85;5.22;;;;;;;0.87;100.00;100690.75;5093936;28;20028;-36
2023/12/04 10:30:41;;;;;;;7.57;5.65;;;;;;;0.81;100.00;100668.31;5094262;28;20468;-36
2023/12/04 10:33:07;;;;;;;6.70;5.70;;;;;;;0.88;100.00;100668.44;5093663;28;20032;-36
2023/12/04 10:35:36;;;;;;;;;;;;;;;1.00;100.00;100669.72;5094608;28;20024;-36
2023/12/04 10:38:05;;;;;;;7.43;5.97;;;;;;;0.91;100.00;100652.97;5094104;28;19919;-36
2023/12/04 10:40:32;;;;;;;6.70;5.72;;;;;;;1.03;100.00;100653.44;5094394;28;20028;-36
2023/12/04 10:43:16;;;;;;;12.55;6.53;;;;;;;1.02;100.00;100649.06;5093768;28;20025;-35
2023/12/04 10:45:43;;;;;;;8.75;6.05;;;;;;;1.05;100.00;100645.25;5093762;28;20024;-35
2023/12/04 10:48:11;;;;;;;7.85;6.25;;;;;;;1.02;100.00;100625.09;5093693;28;20024;-34
2023/12/04 10:50:38;;;;;;;7.00;5.55;;;;;;;1.11;100.00;100637.38;5094318;28;20051;-35
2023/12/04 10:53:04;;;;;;;6.50;5.60;;;;;;;1.12;100.00;100633.72;5094015;28;20103;-37
2023/12/04 10:55:31;;;;;;;7.53;5.90;;;;;;;1.03;100.00;100622.28;5093551;28;20028;-36
2023/12/04 10:57:56;;;;;;;6.18;5.45;;;;;;;1.15;100.00;100625.38;5094355;28;20050;-35
2023/12/04 11:00:22;;;;;;;7.90;6.10;;;;;;;1.15;100.00;100614.72;5093878;28;20028;-36
2023/12/04 11:02:49;;;;;;;7.28;6.22;;;;;;;1.12;100.00;100593.75;5093210;28;20396;-35
2023/12/04 11:05:21;;;;;;;6.88;5.88;;;;;;;1.20;100.00;100609.72;5093361;28;20388;-36
2023/12/04 11:08:01;;;;;;;6.93;6.05;;;;;;;1.23;100.00;100601.38;5093534;28;20071;-36
2023/12/04 11:10:31;;;;;;;10.00;6.15;;;;;;;1.18;100.00;100587.75;5093235;28;20529;-36
2023/12/04 11:13:03;;;;;;;6.65;5.78;;;;;;;1.18;100.00;100569.13;5093457;28;20078;-36
2023/12/04 11:15:31;;;;;;;6.85;6.10;;;;;;;1.23;100.00;100579.25;5094284;28;20054;-36